Time;durP1;ratioP1;P1;durP2;ratioP2;P2;SDS_P1;SDS_P2;PMS_P1;PMS_P2;Temp;Humidity;BMP_temperature;BMP_pressure;BME280_temperature;BME280_humidity;BME280_pressure;Samples;Min_cycle;Max_cycle;Signal;HPM_P1;HPM_P2
2021/08/23 00:00:21;;;;;;;3.65;2.40;;;;;;;15.26;72.67;101763.41;1719258;83;21706;-95
2021/08/23 00:02:52;;;;;;;3.58;2.10;;;;;;;15.29;72.63;101761.72;1695999;83;20970;-95
2021/08/23 00:05:20;;;;;;;3.92;2.10;;;;;;;15.29;72.53;101760.84;1719208;81;20974;-95
2021/08/23 00:07:51;;;;;;;4.28;2.20;;;;;;;15.28;72.38;101766.58;1719480;83;21512;-93
2021/08/23 00:10:16;;;;;;;2.25;1.90;;;;;;;15.28;72.31;101759.06;1718717;83;21434;-95
2021/08/23 00:12:42;;;;;;;2.45;2.10;;;;;;;15.25;72.28;101753.68;1719092;81;21747;-95
2021/08/23 00:15:10;;;;;;;4.05;1.75;;;;;;;15.22;72.26;101762.48;1719323;81;20962;-96
2021/08/23 00:17:37;;;;;;;4.33;2.00;;;;;;;15.19;72.23;101758.86;1695691;83;21002;-96
2021/08/23 00:20:05;;;;;;;5.97;1.92;;;;;;;15.15;72.27;101764.08;1719458;83;20975;-96
2021/08/23 00:22:36;;;;;;;2.72;1.75;;;;;;;15.13;72.23;101760.50;1719407;81;21444;-96
2021/08/23 00:25:03;;;;;;;3.75;2.30;;;;;;;15.11;72.25;101766.20;1719426;83;21736;-96
2021/08/23 00:27:30;;;;;;;2.95;1.80;;;;;;;15.08;72.33;101764.80;1719411;81;20986;-96
2021/08/23 00:29:59;;;;;;;5.03;2.30;;;;;;;15.08;72.37;101766.13;1695502;83;21006;-95
2021/08/23 00:32:26;;;;;;;4.05;2.17;;;;;;;15.07;72.38;101772.30;1719431;81;20960;-95
2021/08/23 00:34:53;;;;;;;6.08;2.08;;;;;;;15.06;72.40;101774.48;1725997;81;21597;-95
2021/08/23 00:37:20;;;;;;;5.25;1.92;;;;;;;15.04;72.38;101766.92;1758934;81;21808;-95
2021/08/23 00:39:50;;;;;;;2.47;2.15;;;;;;;15.04;72.38;101773.98;1721509;81;21002;-94
2021/08/23 00:42:18;;;;;;;2.67;2.15;;;;;;;15.02;72.35;101766.44;1718991;81;20958;-95
2021/08/23 00:44:49;;;;;;;3.98;2.00;;;;;;;15.02;72.36;101781.02;1719006;81;21018;-96
2021/08/23 00:47:14;;;;;;;2.67;2.02;;;;;;;15.01;72.36;101780.53;1718574;81;20966;-95
2021/08/23 00:49:40;;;;;;;4.50;2.42;;;;;;;15.00;72.30;101783.63;1719451;83;21838;-96
2021/08/23 00:52:08;;;;;;;3.50;2.00;;;;;;;14.97;72.36;101776.47;1719252;81;21392;-95
2021/08/23 00:54:37;;;;;;;4.95;2.08;;;;;;;14.98;72.35;101769.44;1719427;83;21404;-95
2021/08/23 00:57:05;;;;;;;3.33;1.90;;;;;;;14.97;72.33;101770.28;1719500;81;20911;-94
2021/08/23 00:59:35;;;;;;;2.77;1.90;;;;;;;14.95;72.31;101763.61;1719259;83;20985;-95
2021/08/23 01:02:17;;;;;;;3.47;2.08;;;;;;;14.93;72.30;101762.69;1719268;81;21681;-95
2021/08/23 01:04:59;;;;;;;4.22;2.00;;;;;;;14.93;72.36;101763.13;1696937;83;20947;-89
2021/08/23 01:07:27;;;;;;;4.37;2.10;;;;;;;14.91;72.30;101759.55;1718804;83;21006;-93
2021/08/23 01:10:02;;;;;;;2.67;1.50;;;;;;;14.88;72.29;101755.05;1694196;83;21205;-94
2021/08/23 01:12:34;;;;;;;4.53;1.50;;;;;;;14.89;72.29;101760.83;1718909;83;21019;-93
2021/08/23 01:15:01;;;;;;;4.42;1.80;;;;;;;14.87;72.32;101752.39;1718958;83;21014;-94
2021/08/23 01:17:28;;;;;;;4.03;2.12;;;;;;;14.86;72.30;101758.09;1719040;83;20991;-95
2021/08/23 01:19:59;;;;;;;2.72;2.00;;;;;;;14.85;72.25;101752.34;1695961;83;20998;-95
2021/08/23 01:22:28;;;;;;;3.77;1.62;;;;;;;14.84;72.19;101753.63;1695147;82;20967;-96
2021/08/23 01:24:55;;;;;;;2.80;1.77;;;;;;;14.85;72.23;101753.67;1719456;81;20974;-95
2021/08/23 01:27:22;;;;;;;5.17;2.02;;;;;;;14.84;72.21;101755.84;1719248;81;21714;-95
2021/08/23 01:30:01;;;;;;;2.98;1.77;;;;;;;14.84;72.10;101753.63;1719171;83;21423;-95
2021/08/23 01:32:30;;;;;;;2.25;1.50;;;;;;;14.83;72.05;101750.50;1719164;83;20975;-95
2021/08/23 01:34:57;;;;;;;1.82;1.55;;;;;;;14.84;72.00;101743.91;1719229;82;21432;-96
2021/08/23 01:37:24;;;;;;;3.42;1.67;;;;;;;14.86;71.96;101746.16;1719432;81;21018;-96
2021/08/23 01:39:54;;;;;;;4.30;1.90;;;;;;;14.86;71.85;101742.19;1719325;83;21743;-96
2021/08/23 01:42:21;;;;;;;2.02;1.50;;;;;;;14.89;71.77;101746.25;1719260;83;21007;-96
2021/08/23 01:44:48;;;;;;;5.12;1.77;;;;;;;14.90;71.66;101740.51;1719357;83;20983;-96
2021/08/23 01:47:14;;;;;;;3.85;1.77;;;;;;;14.90;71.50;101740.11;1693656;82;20977;-96
2021/08/23 01:49:41;;;;;;;2.65;1.60;;;;;;;14.92;71.40;101736.14;1719251;81;21006;-95
2021/08/23 01:52:10;;;;;;;1.70;1.40;;;;;;;14.91;71.29;101735.25;1719314;83;21738;-96
2021/08/23 01:54:42;;;;;;;1.85;1.45;;;;;;;14.91;71.16;101731.27;1719545;83;21354;-96
2021/08/23 01:57:16;;;;;;;2.47;1.45;;;;;;;14.91;71.07;101729.95;1719770;83;21436;-96
2021/08/23 01:59:46;;;;;;;1.70;1.37;;;;;;;14.92;70.96;101726.86;1719461;83;21202;-95
2021/08/23 02:02:13;;;;;;;2.70;1.80;;;;;;;14.93;70.85;101726.02;1719760;83;20970;-96
2021/08/23 02:04:40;;;;;;;3.90;1.80;;;;;;;14.92;70.73;101728.18;1719108;81;21752;-93
2021/08/23 02:07:07;;;;;;;2.40;1.60;;;;;;;14.92;70.67;101726.86;1719194;82;20982;-96
2021/08/23 02:09:34;;;;;;;2.27;1.50;;;;;;;14.91;70.57;101728.63;1719190;83;20962;-93
2021/08/23 02:12:02;;;;;;;3.12;1.70;;;;;;;14.89;70.52;101727.69;1718673;82;21211;-96
2021/08/23 02:14:29;;;;;;;3.83;1.85;;;;;;;14.89;70.48;101725.05;1695068;83;21006;-94
2021/08/23 02:16:57;;;;;;;2.40;1.57;;;;;;;14.90;70.40;101724.61;1719035;83;21920;-96
2021/08/23 02:19:27;;;;;;;2.98;1.60;;;;;;;14.91;70.38;101728.63;1718939;83;21002;-95
2021/08/23 02:21:54;;;;;;;1.92;1.10;;;;;;;14.92;70.26;101732.16;1719061;83;20978;-95
2021/08/23 02:24:22;;;;;;;1.98;1.45;;;;;;;14.94;70.18;101724.73;1725443;81;20994;-94
2021/08/23 02:26:49;;;;;;;2.08;1.47;;;;;;;14.95;70.05;101727.83;1719259;83;21477;-94
2021/08/23 02:29:18;;;;;;;1.90;1.57;;;;;;;14.97;70.02;101726.10;1708787;83;20954;-95
2021/08/23 02:31:45;;;;;;;2.72;1.30;;;;;;;14.97;69.85;101720.80;1727386;81;21001;-93
2021/08/23 02:34:12;;;;;;;2.50;1.60;;;;;;;14.97;69.76;101723.45;1719919;81;21609;-94
2021/08/23 02:36:39;;;;;;;2.27;1.17;;;;;;;14.97;69.67;101725.22;1723048;81;21010;-94
2021/08/23 02:39:07;;;;;;;2.60;1.25;;;;;;;14.99;69.58;101726.58;1694149;83;21411;-94
2021/08/23 02:41:39;;;;;;;2.25;1.45;;;;;;;14.99;69.41;101727.91;1694056;83;20987;-95
2021/08/23 02:44:07;;;;;;;2.08;1.40;;;;;;;14.97;69.31;101730.52;1718914;81;21436;-95
2021/08/23 02:46:33;;;;;;;1.67;1.32;;;;;;;14.96;69.20;101728.30;1719381;83;20975;-95
2021/08/23 02:49:03;;;;;;;2.15;1.50;;;;;;;14.94;69.06;101730.03;1719686;83;21010;-95
2021/08/23 02:51:29;;;;;;;3.85;1.30;;;;;;;14.94;69.05;101733.09;1719348;81;20987;-96
2021/08/23 02:53:57;;;;;;;1.65;1.35;;;;;;;14.94;69.00;101735.73;1694669;82;21083;-95
2021/08/23 02:56:24;;;;;;;2.83;1.30;;;;;;;14.93;68.95;101735.29;1719453;83;20963;-95
2021/08/23 02:58:51;;;;;;;3.55;1.42;;;;;;;14.91;68.94;101737.91;1719294;83;21011;-95
2021/08/23 03:01:18;;;;;;;1.40;1.27;;;;;;;14.90;68.86;101736.13;1719214;81;20998;-95
2021/08/23 03:03:47;;;;;;;2.17;1.60;;;;;;;14.90;68.82;101737.45;1719555;81;20970;-96
2021/08/23 03:06:18;;;;;;;4.15;1.35;;;;;;;14.92;68.81;101742.77;1695278;83;20946;-96
2021/08/23 03:08:47;;;;;;;2.95;1.70;;;;;;;14.94;68.75;101742.36;1718792;83;20962;-95
2021/08/23 03:11:17;;;;;;;3.10;1.87;;;;;;;14.94;68.66;101745.94;1719269;80;20974;-96
2021/08/23 03:13:43;;;;;;;2.02;1.42;;;;;;;14.92;68.60;101739.70;1719169;83;21512;-95
2021/08/23 03:16:10;;;;;;;3.65;1.42;;;;;;;14.88;68.53;101743.56;1719554;83;21026;-96
2021/08/23 03:18:40;;;;;;;3.85;1.40;;;;;;;14.83;68.58;101746.12;1719208;82;22408;-94
2021/08/23 03:21:06;;;;;;;5.33;2.40;;;;;;;14.79;68.57;101746.91;1718981;83;20962;-90
2021/08/23 03:23:35;;;;;;;2.25;1.30;;;;;;;14.75;68.61;101748.59;1719189;83;21444;-94
2021/08/23 03:26:06;;;;;;;3.37;1.60;;;;;;;14.72;68.67;101755.57;1719364;81;21021;-95
2021/08/23 03:28:32;;;;;;;4.97;1.52;;;;;;;14.68;68.72;101758.57;1719487;82;20994;-96
2021/08/23 03:30:59;;;;;;;3.42;2.20;;;;;;;14.65;68.83;101755.83;1719362;81;21742;-95
2021/08/23 03:33:26;;;;;;;3.62;1.72;;;;;;;14.63;68.85;101760.20;1718978;81;20955;-96
2021/08/23 03:35:53;;;;;;;5.22;2.60;;;;;;;14.61;68.97;101769.88;1719370;83;21010;-95
2021/08/23 03:38:23;;;;;;;2.52;1.95;;;;;;;14.59;68.95;101766.30;1719536;83;21006;-96
2021/08/23 03:40:53;;;;;;;5.12;2.33;;;;;;;14.57;69.03;101766.69;1719779;83;20971;-95
2021/08/23 03:43:20;;;;;;;4.40;2.60;;;;;;;14.58;69.13;101773.77;1719336;81;21778;-94
2021/08/23 03:45:47;;;;;;;3.92;1.57;;;;;;;14.60;69.12;101773.37;1719197;83;20967;-94
2021/08/23 03:48:14;;;;;;;3.42;1.87;;;;;;;14.62;69.17;101773.41;1719425;83;20974;-94
2021/08/23 03:50:40;;;;;;;4.85;2.10;;;;;;;14.66;69.19;101776.19;1719648;83;20986;-95
2021/08/23 03:53:10;;;;;;;3.90;1.80;;;;;;;14.70;69.10;101783.80;1719485;83;20974;-94
2021/08/23 03:55:39;;;;;;;5.90;2.20;;;;;;;14.71;69.04;101787.77;1719461;83;22710;-95
2021/08/23 03:58:09;;;;;;;3.33;2.45;;;;;;;14.73;69.01;101782.11;1718408;80;21042;-96
2021/08/23 04:00:38;;;;;;;6.92;4.53;;;;;;;14.83;69.04;101787.20;1719477;81;20967;-96
2021/08/23 04:03:08;;;;;;;5.37;3.25;;;;;;;15.00;68.97;101784.03;1719166;83;21862;-95
2021/08/23 04:05:40;;;;;;;4.28;2.27;;;;;;;15.09;68.62;101785.58;1719091;81;20986;-96
2021/08/23 04:08:10;;;;;;;3.45;2.33;;;;;;;15.12;68.36;101783.00;1719150;83;20985;-93
2021/08/23 04:10:49;;;;;;;5.58;2.12;;;;;;;15.27;68.52;101787.32;1719075;81;20991;-93
2021/08/23 04:13:08;;;;;;;2.27;1.80;;;;;;;15.68;68.40;101786.43;1715604;82;20958;-94
2021/08/23 04:15:35;;;;;;;5.37;2.62;;;;;;;15.87;68.05;101785.95;1705762;81;21025;-91
2021/08/23 04:18:04;;;;;;;6.53;2.85;;;;;;;16.66;68.93;101784.28;1693741;83;21487;-91
2021/08/23 04:20:30;;;;;;;2.75;2.05;;;;;;;17.61;68.34;101787.47;1724908;81;22673;-91
2021/08/23 04:23:00;;;;;;;5.95;2.50;;;;;;;18.23;67.06;101789.09;1718411;83;20958;-89
2021/08/23 04:25:39;;;;;;;2.58;1.85;;;;;;;19.19;67.04;101786.77;1718740;83;21410;-92
2021/08/23 04:28:00;;;;;;;5.28;2.30;;;;;;;20.40;66.18;101778.73;1716843;83;20979;-93
2021/08/23 04:30:27;;;;;;;3.98;2.10;;;;;;;21.65;64.68;101782.60;1718745;83;21494;-94
2021/08/23 04:33:03;;;;;;;3.58;2.05;;;;;;;22.78;63.56;101779.61;1738231;81;20972;-85
2021/08/23 04:35:24;;;;;;;3.77;3.10;;;;;;;23.90;61.58;101780.19;1743687;80;20994;-86
2021/08/23 04:37:53;;;;;;;3.75;2.60;;;;;;;24.88;60.22;101780.90;1717885;81;21011;-85
2021/08/23 04:40:20;;;;;;;2.80;2.37;;;;;;;25.85;58.83;101787.95;1734114;81;21136;-88
2021/08/23 04:42:58;;;;;;;3.90;1.82;;;;;;;26.67;56.58;101783.35;1729763;80;20993;-87
2021/08/23 04:45:43;;;;;;;3.00;1.87;;;;;;;27.15;55.13;101781.63;1710954;83;21830;-89
2021/08/23 04:48:14;;;;;;;2.77;1.82;;;;;;;26.35;52.75;101779.17;1760400;81;20988;-94
2021/08/23 04:50:40;;;;;;;1.95;1.60;;;;;;;24.44;52.42;101761.88;1760847;80;20996;-92
2021/08/23 04:53:06;;;;;;;2.87;2.02;;;;;;;23.86;52.14;101760.98;1761136;81;20964;-91
2021/08/23 04:55:34;;;;;;;2.70;2.17;;;;;;;23.86;52.14;101760.98;1760889;81;21063;-90
2021/08/23 04:58:02;;;;;;;2.92;2.17;;;;;;;24.13;53.21;101788.38;1737096;81;21457;-89
2021/08/23 05:00:36;;;;;;;2.08;1.62;;;;;;;24.72;53.03;101785.65;1738197;81;21571;-92
2021/08/23 05:03:03;;;;;;;3.77;2.42;;;;;;;25.12;52.02;101786.29;1762001;80;21015;-88
2021/08/23 05:05:30;;;;;;;3.27;2.02;;;;;;;25.70;52.12;101787.83;1761137;80;21037;-92
2021/08/23 05:08:00;;;;;;;5.05;2.25;;;;;;;27.14;51.54;101788.85;1761035;81;20988;-90
2021/08/23 05:10:26;;;;;;;4.58;2.30;;;;;;;28.61;50.51;101779.91;1737582;81;23548;-93
2021/08/23 05:13:03;;;;;;;5.17;2.08;;;;;;;29.25;48.18;101779.95;1761445;81;21004;-94
2021/08/23 05:15:29;;;;;;;2.62;1.90;;;;;;;28.58;46.82;101785.42;1738414;81;21012;-94
2021/08/23 05:18:01;;;;;;;3.90;1.80;;;;;;;27.46;46.53;101784.38;1704657;81;21442;-93
2021/08/23 05:20:31;;;;;;;3.12;2.45;;;;;;;26.42;46.47;101782.59;1757216;81;20941;-94
2021/08/23 05:23:07;;;;;;;5.08;1.60;;;;;;;25.36;46.54;101768.78;1753767;80;21916;-93
2021/08/23 05:25:36;;;;;;;2.05;1.60;;;;;;;24.34;46.98;101769.66;1740219;81;21072;-93
2021/08/23 05:28:05;;;;;;;4.33;2.45;;;;;;;23.47;47.95;101771.30;1663132;85;21443;-93
2021/08/23 05:30:36;;;;;;;6.28;2.40;;;;;;;22.04;49.45;101771.23;1717832;83;21022;-93
2021/08/23 05:33:06;;;;;;;3.42;2.00;;;;;;;22.04;49.45;101771.23;1728034;82;20995;-93
2021/08/23 05:35:31;;;;;;;5.08;2.10;;;;;;;21.52;49.78;101779.96;1723601;82;21786;-95
2021/08/23 05:37:58;;;;;;;7.42;2.58;;;;;;;21.07;50.43;101780.97;1673115;84;21034;-94
2021/08/23 05:40:30;;;;;;;4.47;2.50;;;;;;;20.73;51.06;101776.55;1681847;83;20962;-93
2021/08/23 05:42:55;;;;;;;3.33;2.10;;;;;;;20.57;51.71;101780.98;1660029;85;21500;-94
2021/08/23 05:45:25;;;;;;;6.28;2.62;;;;;;;20.32;51.95;101775.17;1652772;86;21089;-94
2021/08/23 05:47:53;;;;;;;7.92;7.05;;;;;;;20.05;52.37;101770.69;1631938;86;22081;-94
2021/08/23 05:50:21;;;;;;;5.85;3.80;;;;;;;19.87;52.71;101767.52;1663997;86;21581;-93
2021/08/23 05:52:54;;;;;;;4.37;2.00;;;;;;;19.72;53.16;101771.91;1682362;83;21064;-93
2021/08/23 05:55:21;;;;;;;5.25;2.33;;;;;;;19.56;53.51;101772.73;1681519;85;21002;-93
2021/08/23 05:57:48;;;;;;;4.85;1.98;;;;;;;19.49;53.98;101765.13;1682432;84;21028;-93
2021/08/23 06:00:17;;;;;;;3.35;2.35;;;;;;;19.43;54.32;101769.99;1661013;86;22553;-92
2021/08/23 06:02:44;;;;;;;5.28;2.55;;;;;;;19.37;54.54;101770.39;1682596;85;20989;-93
2021/08/23 06:05:11;;;;;;;4.15;2.10;;;;;;;19.31;54.74;101769.03;1682448;83;21045;-93
2021/08/23 06:07:39;;;;;;;3.15;2.00;;;;;;;19.19;54.96;101773.42;1660906;86;21029;-93
2021/08/23 06:10:07;;;;;;;4.47;2.45;;;;;;;19.08;55.17;101772.47;1682546;85;20994;-93
2021/08/23 06:12:34;;;;;;;22.45;4.90;;;;;;;19.05;55.65;101776.47;1682616;83;22425;-92
2021/08/23 06:15:01;;;;;;;14.13;3.20;;;;;;;19.08;55.87;101778.25;1660895;86;21009;-92
2021/08/23 06:17:32;;;;;;;7.28;2.83;;;;;;;19.07;55.94;101776.45;1682620;85;20989;-93
2021/08/23 06:19:56;;;;;;;4.45;2.15;;;;;;;19.08;56.05;101785.81;1680807;83;20974;-93
2021/08/23 06:22:30;;;;;;;3.17;2.10;;;;;;;19.06;55.80;101792.03;1682739;85;21001;-92
2021/08/23 06:24:54;;;;;;;4.03;1.67;;;;;;;18.87;55.63;101797.68;1681444;83;21772;-93
2021/08/23 06:27:26;;;;;;;4.15;2.10;;;;;;;18.72;55.76;101797.97;1637145;86;21017;-92
2021/08/23 06:29:53;;;;;;;2.50;1.80;;;;;;;18.61;55.98;101800.54;1653213;86;21021;-93
2021/08/23 06:32:20;;;;;;;3.45;2.45;;;;;;;18.54;56.06;101804.47;1682760;83;21510;-94
2021/08/23 06:34:49;;;;;;;5.55;2.87;;;;;;;18.40;56.24;101817.23;1682524;85;21004;-93
2021/08/23 06:37:18;;;;;;;7.00;1.90;;;;;;;18.32;56.50;101817.62;1682363;83;20997;-93
2021/08/23 06:39:45;;;;;;;3.40;1.80;;;;;;;18.29;56.66;101819.35;1661009;86;21049;-92
2021/08/23 06:42:12;;;;;;;2.17;1.75;;;;;;;18.28;56.69;101828.21;1682553;83;21002;-93
2021/08/23 06:44:40;;;;;;;3.72;2.25;;;;;;;18.19;56.91;101826.36;1660494;86;21403;-94
2021/08/23 06:47:13;;;;;;;3.83;1.90;;;;;;;18.18;56.93;101834.77;1659710;85;20973;-92
2021/08/23 06:49:42;;;;;;;3.12;2.15;;;;;;;18.18;57.04;101840.10;1659508;85;21073;-93
2021/08/23 06:52:10;;;;;;;3.52;1.90;;;;;;;18.15;57.04;101841.42;1660693;86;21451;-93
2021/08/23 06:54:38;;;;;;;3.25;1.95;;;;;;;18.13;57.14;101841.84;1682048;85;20966;-92
2021/08/23 06:57:09;;;;;;;3.00;1.90;;;;;;;18.13;57.13;101850.25;1682542;83;21013;-93
2021/08/23 06:59:40;;;;;;;5.50;2.92;;;;;;;18.12;57.28;101844.48;1682373;85;21491;-93
2021/08/23 07:02:06;;;;;;;2.72;1.85;;;;;;;18.16;57.37;101843.19;1681909;85;21761;-93
2021/08/23 07:04:36;;;;;;;4.70;2.25;;;;;;;18.24;57.34;101838.86;1660962;86;21456;-93
2021/08/23 07:07:06;;;;;;;3.00;2.15;;;;;;;18.30;57.29;101843.78;1682409;85;21056;-94
2021/08/23 07:09:32;;;;;;;3.35;2.47;;;;;;;18.32;57.34;101842.94;1682422;83;22013;-93
2021/08/23 07:11:59;;;;;;;5.55;2.33;;;;;;;18.34;57.16;101846.51;1660983;86;21013;-93
2021/08/23 07:14:27;;;;;;;2.45;1.82;;;;;;;18.37;57.25;101849.19;1638327;85;40682;-93
2021/08/23 07:16:53;;;;;;;2.52;1.62;;;;;;;18.44;57.12;101853.70;1682648;85;20975;-93
2021/08/23 07:19:24;;;;;;;3.37;2.02;;;;;;;18.46;57.02;101842.61;1682054;85;21013;-93
2021/08/23 07:21:53;;;;;;;3.52;1.82;;;;;;;18.51;57.11;101852.46;1681579;85;21041;-93
2021/08/23 07:24:19;;;;;;;3.47;2.10;;;;;;;18.54;57.13;101849.80;1660476;86;21553;-93
2021/08/23 07:26:48;;;;;;;3.45;2.65;;;;;;;18.56;57.15;101840.04;1660771;85;21022;-93
2021/08/23 07:29:14;;;;;;;3.77;1.90;;;;;;;18.61;57.20;101835.20;1682067;83;21593;-93
2021/08/23 07:31:43;;;;;;;3.85;2.12;;;;;;;18.68;56.90;101836.62;1681978;83;21006;-93
2021/08/23 07:34:12;;;;;;;5.78;1.98;;;;;;;18.69;56.84;101836.61;1682368;85;20969;-93
2021/08/23 07:36:38;;;;;;;4.80;2.85;;;;;;;18.67;56.69;101838.81;1682407;85;21483;-93
2021/08/23 07:39:09;;;;;;;3.67;1.92;;;;;;;18.60;56.56;101832.52;1660665;86;21802;-92
2021/08/23 07:41:34;;;;;;;5.55;1.95;;;;;;;18.60;56.51;101837.44;1632203;88;21052;-93
2021/08/23 07:44:01;;;;;;;3.22;1.92;;;;;;;18.54;56.36;101830.69;1682271;83;20997;-92
2021/08/23 07:46:27;;;;;;;2.72;2.00;;;;;;;18.55;56.54;101831.61;1663990;86;20977;-94
2021/08/23 07:48:54;;;;;;;3.77;1.85;;;;;;;18.62;56.63;101829.45;1682875;83;20986;-92
2021/08/23 07:51:21;;;;;;;3.22;1.90;;;;;;;18.68;56.42;101837.50;1684070;84;21894;-93
2021/08/23 07:53:53;;;;;;;3.45;1.92;;;;;;;18.79;56.40;101835.82;1660254;86;21511;-93
2021/08/23 07:56:19;;;;;;;4.40;1.60;;;;;;;19.02;56.52;101836.02;1632348;88;21028;-93
2021/08/23 07:58:47;;;;;;;2.52;1.75;;;;;;;19.31;56.54;101871.81;1681934;83;21471;-94
2021/08/23 08:01:19;;;;;;;2.35;1.80;;;;;;;19.49;56.25;101839.89;1660480;86;21491;-93
2021/08/23 08:03:47;;;;;;;4.58;1.90;;;;;;;19.65;55.82;101840.84;1682209;85;21515;-93
2021/08/23 08:06:15;;;;;;;2.85;2.40;;;;;;;19.74;55.83;101839.59;1682164;83;21468;-93
2021/08/23 08:08:42;;;;;;;2.45;1.82;;;;;;;19.93;55.45;101852.61;1660561;86;21009;-93
2021/08/23 08:11:09;;;;;;;3.25;1.98;;;;;;;20.06;54.98;101834.81;1682176;83;20986;-94
2021/08/23 08:13:36;;;;;;;4.47;2.10;;;;;;;20.23;55.05;101829.97;1660513;86;21058;-94
2021/08/23 08:16:03;;;;;;;4.17;1.98;;;;;;;20.33;54.64;101835.34;1682089;85;22597;-93
2021/08/23 08:18:30;;;;;;;7.22;1.57;;;;;;;20.43;54.41;101837.58;1660423;86;21110;-93
2021/08/23 08:20:59;;;;;;;4.20;1.80;;;;;;;20.35;53.84;101836.23;1681924;83;20974;-93
2021/08/23 08:23:25;;;;;;;14.95;2.45;;;;;;;20.18;53.41;101842.00;1681977;85;20985;-93
2021/08/23 08:25:55;;;;;;;5.22;1.90;;;;;;;19.90;53.14;101855.72;1660449;86;21085;-93
2021/08/23 08:28:28;;;;;;;4.53;1.98;;;;;;;19.71;53.56;101844.91;1681666;85;21594;-93
2021/08/23 08:30:49;;;;;;;2.60;1.92;;;;;;;19.70;53.60;101852.45;1678291;85;21514;-93
2021/08/23 08:33:18;;;;;;;4.75;2.20;;;;;;;19.68;53.59;101863.58;1659391;85;21459;-93
2021/08/23 08:35:48;;;;;;;2.80;2.10;;;;;;;19.54;53.39;101860.84;1659020;83;21098;-92
2021/08/23 08:38:13;;;;;;;3.95;2.52;;;;;;;19.52;53.94;101864.37;1681550;85;21002;-92
2021/08/23 08:40:43;;;;;;;5.78;2.20;;;;;;;19.62;54.48;101880.47;1682371;85;21927;-93
2021/08/23 08:43:09;;;;;;;3.50;1.67;;;;;;;19.61;54.42;101873.77;1638359;86;20978;-93
2021/08/23 08:45:37;;;;;;;16.48;3.22;;;;;;;19.50;54.53;101882.16;1682676;85;20992;-93
2021/08/23 08:48:04;;;;;;;5.85;2.80;;;;;;;19.47;54.71;101874.16;1682584;85;21463;-92
2021/08/23 08:50:31;;;;;;;4.37;2.37;;;;;;;19.56;54.73;101882.22;1682570;83;21029;-93
2021/08/23 08:53:03;;;;;;;4.15;2.27;;;;;;;19.57;54.36;101878.66;1682602;84;21773;-93
2021/08/23 08:55:30;;;;;;;6.45;2.05;;;;;;;19.53;54.37;101880.41;1660579;85;21455;-93
2021/08/23 08:57:57;;;;;;;3.37;2.25;;;;;;;19.59;54.43;101885.78;1682503;83;21012;-93
2021/08/23 09:00:23;;;;;;;3.80;2.15;;;;;;;19.57;54.42;101887.55;1682888;85;21029;-93
2021/08/23 09:02:55;;;;;;;3.20;1.70;;;;;;;19.43;54.09;101890.14;1682500;85;21064;-93
2021/08/23 09:05:22;;;;;;;4.75;2.10;;;;;;;19.25;54.12;101902.48;1682593;83;21752;-93
2021/08/23 09:07:50;;;;;;;2.98;2.12;;;;;;;19.16;54.44;101884.19;1682461;85;20950;-93
2021/08/23 09:10:24;;;;;;;3.55;2.30;;;;;;;19.27;54.51;101886.91;1661079;86;20993;-93
2021/08/23 09:13:05;;;;;;;6.78;5.30;;;;;;;19.35;54.39;101898.98;1661090;83;21017;-93
2021/08/23 09:15:33;;;;;;;5.15;2.10;;;;;;;19.30;54.28;101886.95;1682344;83;21021;-93
2021/08/23 09:18:07;;;;;;;3.50;2.30;;;;;;;19.31;53.99;101891.83;1637354;86;21145;-93
2021/08/23 09:20:37;;;;;;;2.25;1.77;;;;;;;19.18;53.91;101889.51;1681818;85;21519;-93
2021/08/23 09:23:12;;;;;;;5.87;2.33;;;;;;;19.10;54.01;101893.45;1682748;85;21009;-93
2021/08/23 09:25:38;;;;;;;4.25;2.35;;;;;;;19.01;53.81;101894.30;1682243;83;20989;-93
2021/08/23 09:28:06;;;;;;;5.35;2.30;;;;;;;18.98;54.00;101889.38;1660886;86;21048;-93
2021/08/23 09:30:35;;;;;;;3.42;2.37;;;;;;;19.06;54.24;101888.98;1682600;83;21750;-92
2021/08/23 09:33:04;;;;;;;4.12;2.58;;;;;;;19.17;54.07;101907.76;1660908;85;20978;-92
2021/08/23 09:35:35;;;;;;;4.72;3.12;;;;;;;19.18;53.91;101899.77;1682755;85;21049;-93
2021/08/23 09:38:11;;;;;;;4.28;3.72;;;;;;;19.18;53.77;101899.77;1682792;85;21475;-92
2021/08/23 09:40:40;;;;;;;3.75;2.52;;;;;;;19.09;53.70;101897.02;1660780;85;20973;-92
2021/08/23 09:43:12;;;;;;;9.13;3.00;;;;;;;19.19;53.88;101914.88;1661087;86;21907;-93
2021/08/23 09:45:47;;;;;;;12.50;3.62;;;;;;;19.36;53.78;101903.00;1683627;83;21072;-93
2021/08/23 09:48:10;;;;;;;5.62;2.85;;;;;;;19.51;53.28;101910.67;1689412;85;20993;-94
2021/08/23 09:50:45;;;;;;;6.17;2.83;;;;;;;19.61;53.38;101900.06;1685952;83;21026;-93
2021/08/23 09:53:15;;;;;;;7.30;3.02;;;;;;;19.92;53.11;101903.38;1682388;85;21014;-93
2021/08/23 09:55:44;;;;;;;4.70;2.70;;;;;;;20.02;52.54;101914.53;1689239;85;21788;-93
2021/08/23 09:58:13;;;;;;;4.10;2.02;;;;;;;20.15;52.57;101922.17;1638275;86;21525;-93
2021/08/23 10:00:44;;;;;;;3.12;2.40;;;;;;;20.23;52.24;101911.05;1682850;85;20990;-93
2021/08/23 10:03:17;;;;;;;3.20;2.42;;;;;;;20.30;52.21;101911.53;1661409;86;21029;-93
2021/08/23 10:05:47;;;;;;;6.95;2.62;;;;;;;20.29;51.62;101895.47;1681767;83;20963;-94
2021/08/23 10:08:17;;;;;;;4.00;2.90;;;;;;;20.17;51.08;101910.59;1661094;86;22479;-93
2021/08/23 10:10:44;;;;;;;4.87;2.85;;;;;;;19.95;51.11;101899.36;1682541;83;21442;-93
2021/08/23 10:13:11;;;;;;;5.75;2.98;;;;;;;19.73;50.94;101902.39;1682751;85;20989;-94
2021/08/23 10:15:38;;;;;;;5.15;3.10;;;;;;;19.50;50.39;101928.48;1660937;86;21025;-93
2021/08/23 10:18:05;;;;;;;4.05;2.72;;;;;;;19.35;50.00;101912.33;1682716;85;20987;-93
2021/08/23 10:20:38;;;;;;;4.40;3.05;;;;;;;19.22;50.56;101902.02;1682735;85;21749;-93
2021/08/23 10:23:04;;;;;;;5.58;2.75;;;;;;;19.20;50.91;101911.34;1682424;85;21029;-93
2021/08/23 10:25:31;;;;;;;8.13;2.87;;;;;;;19.29;50.86;101897.61;1682913;85;21057;-93
2021/08/23 10:28:07;;;;;;;3.80;2.65;;;;;;;19.34;50.67;101900.77;1661141;86;20981;-93
2021/08/23 10:30:37;;;;;;;5.72;2.98;;;;;;;19.29;50.55;101905.16;1682780;85;20997;-94
2021/08/23 10:33:16;;;;;;;6.85;2.75;;;;;;;19.27;50.71;101908.72;1682026;85;21745;-94
2021/08/23 10:35:53;;;;;;;6.12;2.95;;;;;;;19.29;50.66;101909.17;1682274;83;21435;-93
2021/08/23 10:38:22;;;;;;;9.00;2.52;;;;;;;19.28;50.40;101909.19;1682519;85;21016;-93
2021/08/23 10:40:51;;;;;;;7.22;2.85;;;;;;;19.16;50.57;101949.58;1682473;83;21208;-93
2021/08/23 10:43:23;;;;;;;4.05;2.70;;;;;;;19.06;50.88;101910.33;1638654;86;21502;-93
2021/08/23 10:45:50;;;;;;;4.43;2.40;;;;;;;18.99;50.91;101911.16;1661687;84;22319;-93
2021/08/23 10:48:20;;;;;;;5.83;2.15;;;;;;;18.93;50.96;101918.66;1682833;83;21044;-93
2021/08/23 10:51:05;;;;;;;4.85;2.80;;;;;;;18.89;50.97;101930.64;1682019;83;21021;-93
2021/08/23 10:53:36;;;;;;;6.08;2.98;;;;;;;18.84;51.14;101923.49;1661206;86;21005;-92
2021/08/23 10:56:21;;;;;;;7.17;2.87;;;;;;;18.85;51.36;101920.38;1682844;85;20993;-93
2021/08/23 10:58:46;;;;;;;4.70;2.00;;;;;;;18.94;51.34;101924.47;1681225;83;21768;-93
2021/08/23 11:01:21;;;;;;;4.15;2.35;;;;;;;18.98;51.26;101921.39;1636643;86;20993;-93
2021/08/23 11:04:11;;;;;;;3.05;2.30;;;;;;;19.02;51.42;101913.41;1682599;83;21381;-93
2021/08/23 11:06:42;;;;;;;3.75;2.50;;;;;;;19.13;51.27;101939.31;1660743;86;20981;-92
2021/08/23 11:09:12;;;;;;;2.90;2.50;;;;;;;19.28;51.46;101921.20;1680009;83;21006;-92
2021/08/23 11:11:40;;;;;;;4.00;2.55;;;;;;;19.48;51.62;101923.99;1637762;86;20997;-93
2021/08/23 11:14:20;;;;;;;3.20;2.35;;;;;;;19.78;51.26;101922.91;1661030;85;21175;-93
2021/08/23 11:16:56;;;;;;;5.97;2.70;;;;;;;19.94;50.98;101925.20;1682732;83;20998;-92
2021/08/23 11:19:22;;;;;;;8.98;2.92;;;;;;;20.05;50.50;101937.73;1661100;85;20977;-93
2021/08/23 11:21:59;;;;;;;4.37;2.62;;;;;;;20.06;50.34;101923.47;1682835;83;21030;-94
2021/08/23 11:24:29;;;;;;;3.65;2.22;;;;;;;20.14;50.20;101927.05;1682810;83;21756;-93
2021/08/23 11:27:01;;;;;;;5.28;2.25;;;;;;;20.21;50.15;101931.55;1661283;86;21008;-93
2021/08/23 11:29:26;;;;;;;4.05;2.52;;;;;;;20.26;50.04;101904.39;1660925;86;21450;-93
2021/08/23 11:31:59;;;;;;;5.05;2.52;;;;;;;20.21;49.62;101924.86;1682632;85;21061;-93